Time;durP1;ratioP1;P1;durP2;ratioP2;P2;SDS_P1;SDS_P2;PMS_P1;PMS_P2;Temp;Humidity;BMP_temperature;BMP_pressure;BME280_temperature;BME280_humidity;BME280_pressure;Samples;Min_cycle;Max_cycle;Signal;HPM_P1;HPM_P2
2023/06/10 04:31:06;;;;;;;19.70;12.85;;;20.40;84.60;;;;;;5591495;23;20100;-80
2023/06/10 04:33:31;;;;;;;21.05;12.65;;;20.40;84.40;;;;;;4982571;28;20114;-80
2023/06/10 04:35:57;;;;;;;24.02;13.77;;;20.30;84.80;;;;;;4981777;28;20172;-80
2023/06/10 04:38:23;;;;;;;24.85;13.77;;;20.40;84.70;;;;;;4976918;28;20530;-80
2023/06/10 04:40:49;;;;;;;21.65;13.80;;;20.40;84.60;;;;;;4976962;28;20066;-80
2023/06/10 04:43:14;;;;;;;22.00;13.13;;;20.40;84.50;;;;;;4986957;28;20082;-80
2023/06/10 04:45:40;;;;;;;21.92;12.45;;;20.40;84.50;;;;;;4957708;28;20410;-80
2023/06/10 04:48:07;;;;;;;24.55;13.55;;;20.40;84.70;;;;;;4975166;28;20209;-81
2023/06/10 04:50:32;;;;;;;22.30;14.18;;;20.40;84.70;;;;;;4974376;28;20059;-80
2023/06/10 04:52:58;;;;;;;25.83;13.15;;;20.40;84.50;;;;;;4973955;28;20112;-80
2023/06/10 04:55:25;;;;;;;24.00;13.82;;;20.40;84.40;;;;;;4959823;28;20185;-81
2023/06/10 04:57:51;;;;;;;25.92;13.50;;;20.40;84.50;;;;;;4979936;28;20115;-81
2023/06/10 05:00:17;;;;;;;23.38;13.35;;;20.40;84.50;;;;;;4974981;28;20473;-81
2023/06/10 05:02:42;;;;;;;22.80;14.25;;;20.30;85.00;;;;;;4987206;28;20084;-81
2023/06/10 05:05:08;;;;;;;26.13;14.35;;;20.30;85.30;;;;;;4987825;28;20126;-81
2023/06/10 05:07:34;;;;;;;22.58;13.70;;;20.40;84.90;;;;;;4998231;28;20027;-81
2023/06/10 05:10:00;;;;;;;24.02;14.00;;;20.30;85.30;;;;;;4980840;28;20548;-81
2023/06/10 05:12:26;;;;;;;23.13;13.88;;;20.30;85.50;;;;;;4984111;28;20025;-81
2023/06/10 05:14:51;;;;;;;26.73;13.77;;;20.30;85.80;;;;;;4985022;28;20055;-81
2023/06/10 05:17:17;;;;;;;24.42;13.65;;;20.30;85.70;;;;;;4978990;28;20482;-81
2023/06/10 05:19:43;;;;;;;24.48;14.30;;;20.30;85.60;;;;;;4978416;28;20631;-81
2023/06/10 05:22:09;;;;;;;29.75;14.60;;;20.30;85.80;;;;;;4978435;28;20027;-81
2023/06/10 05:24:34;;;;;;;24.58;14.48;;;20.30;85.80;;;;;;4990356;28;20038;-81
2023/06/10 05:27:00;;;;;;;25.40;14.80;;;20.30;85.30;;;;;;4997710;28;20089;-81
2023/06/10 05:29:26;;;;;;;23.10;14.63;;;20.40;85.10;;;;;;4996573;28;20022;-81
2023/06/10 05:31:51;;;;;;;25.90;15.52;;;20.40;84.90;;;;;;4979989;28;20042;-81
2023/06/10 05:34:17;;;;;;;26.20;14.32;;;20.50;84.80;;;;;;4997394;28;20040;-81
2023/06/10 05:36:43;;;;;;;25.27;15.57;;;20.50;84.70;;;;;;4997368;28;20030;-81
2023/06/10 05:39:10;;;;;;;25.05;15.27;;;20.50;84.70;;;;;;4979627;28;20603;-81
2023/06/10 05:41:36;;;;;;;28.55;15.80;;;20.40;84.90;;;;;;4997107;28;20416;-81
2023/06/10 05:44:01;;;;;;;27.27;15.75;;;20.40;85.00;;;;;;4992049;28;20030;-81
2023/06/10 05:46:27;;;;;;;28.17;15.45;;;20.40;85.50;;;;;;4989319;28;20054;-81
2023/06/10 05:48:53;;;;;;;29.17;15.05;;;20.50;85.80;;;;;;4977833;28;20018;-80
2023/06/10 05:51:18;;;;;;;33.63;15.90;;;20.50;85.80;;;;;;4977554;28;20030;-81
2023/06/10 05:53:46;;;;;;;32.47;15.95;;;20.50;85.70;;;;;;4973563;28;20034;-80
2023/06/10 05:56:12;;;;;;;29.80;16.08;;;20.70;85.10;;;;;;4997337;28;20022;-75
2023/06/10 05:58:38;;;;;;;33.13;16.55;;;20.70;85.10;;;;;;4987258;28;20031;-75
2023/06/10 06:01:04;;;;;;;30.95;16.42;;;20.80;84.80;;;;;;4977534;28;20094;-75
2023/06/10 06:03:29;;;;;;;34.47;16.30;;;20.80;84.50;;;;;;4990186;28;20062;-75
2023/06/10 06:05:55;;;;;;;32.90;16.58;;;20.80;84.50;;;;;;4992419;28;20555;-77
2023/06/10 06:08:21;;;;;;;27.77;16.25;;;20.80;84.50;;;;;;4984344;28;20030;-75
2023/06/10 06:10:47;;;;;;;35.33;16.85;;;20.80;84.90;;;;;;4979473;28;20093;-76
2023/06/10 06:13:13;;;;;;;37.58;18.05;;;20.80;84.80;;;;;;4977204;28;20031;-77
2023/06/10 06:15:39;;;;;;;32.47;16.50;;;20.80;84.90;;;;;;4967208;28;20025;-77
2023/06/10 06:18:04;;;;;;;36.60;17.00;;;20.80;84.90;;;;;;4978650;28;20092;-77
2023/06/10 06:20:30;;;;;;;32.97;16.48;;;20.80;84.70;;;;;;4996195;28;20157;-77
2023/06/10 06:22:56;;;;;;;31.65;16.50;;;20.80;84.80;;;;;;4995326;28;20041;-76
2023/06/10 06:25:21;;;;;;;27.83;15.88;;;20.80;84.80;;;;;;4979021;28;20030;-80
2023/06/10 06:27:47;;;;;;;30.50;16.33;;;20.80;84.80;;;;;;4978765;28;20041;-78
2023/06/10 06:30:13;;;;;;;35.65;16.95;;;20.80;84.80;;;;;;4996069;28;20026;-78
2023/06/10 06:32:38;;;;;;;32.08;16.83;;;20.90;84.60;;;;;;4978459;28;20041;-77
2023/06/10 06:35:07;;;;;;;34.55;16.67;;;20.90;84.50;;;;;;4996209;28;20422;-78
2023/06/10 06:37:33;;;;;;;31.80;16.27;;;21.00;84.40;;;;;;4978568;28;20038;-79
2023/06/10 06:39:59;;;;;;;32.58;15.43;;;21.00;83.80;;;;;;4978105;28;20569;-78
2023/06/10 06:42:25;;;;;;;35.70;16.73;;;21.00;84.60;;;;;;4996633;28;20038;-81
2023/06/10 06:44:50;;;;;;;30.77;16.30;;;21.00;84.70;;;;;;5015150;28;20408;-79
2023/06/10 06:47:19;;;;;;;30.42;16.55;;;21.00;84.50;;;;;;5015260;28;20034;-78
2023/06/10 06:49:46;;;;;;;34.40;16.10;;;21.00;84.10;;;;;;4991941;28;20021;-80
2023/06/10 06:52:12;;;;;;;33.50;16.10;;;21.00;84.40;;;;;;4994767;28;20054;-79
2023/06/10 06:54:38;;;;;;;30.52;16.55;;;21.10;84.30;;;;;;4987143;28;20579;-79
2023/06/10 06:57:04;;;;;;;32.63;16.75;;;21.10;84.30;;;;;;4983798;28;20070;-79
2023/06/10 06:59:29;;;;;;;28.33;16.10;;;21.10;84.20;;;;;;4984230;28;20509;-80
2023/06/10 07:01:55;;;;;;;32.65;16.85;;;21.10;83.90;;;;;;4975854;28;20413;-79
2023/06/10 07:04:21;;;;;;;35.35;16.42;;;21.10;84.40;;;;;;4993556;28;20036;-78
2023/06/10 07:06:48;;;;;;;31.33;16.65;;;21.20;83.90;;;;;;4982181;28;20025;-79
2023/06/10 07:09:14;;;;;;;34.88;16.85;;;21.20;84.10;;;;;;4996866;28;20015;-91
2023/06/10 07:11:39;;;;;;;33.28;16.75;;;21.20;84.10;;;;;;4986778;28;20019;-77
2023/06/10 07:14:06;;;;;;;33.92;17.48;;;21.20;83.80;;;;;;4985211;28;20019;-79
2023/06/10 07:16:31;;;;;;;32.60;15.88;;;21.30;83.70;;;;;;4980409;28;20507;-75
2023/06/10 07:18:59;;;;;;;32.65;17.33;;;21.30;83.80;;;;;;4984567;28;20023;-78
2023/06/10 07:21:25;;;;;;;32.40;16.50;;;21.30;83.80;;;;;;4980501;28;20053;-76
2023/06/10 07:23:53;;;;;;;33.67;17.83;;;21.30;83.50;;;;;;4980983;28;20022;-77
2023/06/10 07:26:19;;;;;;;27.98;16.52;;;21.30;83.70;;;;;;4999934;28;20034;-84
2023/06/10 07:28:45;;;;;;;31.05;17.52;;;21.30;83.90;;;;;;5011885;28;20029;-77
2023/06/10 07:31:11;;;;;;;35.88;18.23;;;21.30;84.00;;;;;;4999675;28;20118;-80
2023/06/10 07:33:39;;;;;;;29.27;16.80;;;21.30;84.10;;;;;;4979157;28;20042;-78
2023/06/10 07:36:05;;;;;;;35.83;17.40;;;21.30;84.20;;;;;;4989150;28;20041;-77
2023/06/10 07:38:31;;;;;;;32.05;17.00;;;21.30;84.10;;;;;;4980107;28;20034;-80
2023/06/10 07:40:57;;;;;;;31.50;15.60;;;21.20;84.20;;;;;;4993538;28;20038;-85
2023/06/10 07:43:23;;;;;;;29.85;17.45;;;21.30;83.80;;;;;;4999574;28;20467;-81
2023/06/10 07:45:49;;;;;;;32.70;17.23;;;21.20;84.10;;;;;;4992908;28;20034;-86
2023/06/10 07:48:15;;;;;;;32.55;17.38;;;21.30;84.10;;;;;;4998441;28;20495;-79
2023/06/10 07:50:40;;;;;;;31.65;17.45;;;21.20;84.10;;;;;;4993052;28;20038;-90
2023/06/10 07:53:06;;;;;;;31.55;16.80;;;21.20;84.20;;;;;;4978157;28;20030;-82
2023/06/10 07:55:34;;;;;;;32.80;16.42;;;21.30;84.00;;;;;;4988836;28;20058;-78
2023/06/10 07:58:00;;;;;;;31.55;16.35;;;21.30;83.90;;;;;;4988373;28;20105;-80
2023/06/10 08:00:25;;;;;;;32.38;16.40;;;21.30;83.90;;;;;;4986403;28;20058;-80
2023/06/10 08:02:51;;;;;;;29.73;16.15;;;21.40;84.10;;;;;;4987929;28;20058;-77
2023/06/10 08:05:17;;;;;;;33.15;16.20;;;21.40;84.00;;;;;;4991043;28;20030;-81
2023/06/10 08:07:43;;;;;;;32.53;16.20;;;21.40;84.00;;;;;;4999129;28;20026;-77
2023/06/10 08:10:09;;;;;;;30.73;16.63;;;21.50;83.90;;;;;;4997066;28;20032;-78
2023/06/10 08:12:36;;;;;;;30.85;16.42;;;21.50;83.70;;;;;;4967494;28;20026;-78
2023/06/10 08:15:03;;;;;;;27.80;16.50;;;21.50;83.80;;;;;;5013960;28;20041;-80
2023/06/10 08:17:30;;;;;;;29.42;15.52;;;21.60;83.70;;;;;;4995731;28;20062;-80
2023/06/10 08:19:55;;;;;;;29.88;16.20;;;21.70;83.90;;;;;;4987159;28;20046;-78
2023/06/10 08:22:21;;;;;;;28.25;16.27;;;21.70;83.80;;;;;;4988621;28;20033;-78
2023/06/10 08:24:47;;;;;;;32.67;15.82;;;21.70;83.50;;;;;;4987385;28;20193;-79
2023/06/10 08:27:12;;;;;;;31.48;16.25;;;21.80;83.30;;;;;;4986304;28;20022;-78
2023/06/10 08:29:38;;;;;;;29.73;16.15;;;21.80;83.00;;;;;;4989583;28;20393;-79
2023/06/10 08:32:04;;;;;;;30.35;15.90;;;21.90;83.00;;;;;;4987508;28;20121;-79
2023/06/10 08:34:30;;;;;;;29.35;16.25;;;21.90;82.80;;;;;;4989199;28;20058;-79
2023/06/10 08:36:56;;;;;;;31.45;16.30;;;22.00;82.60;;;;;;4987433;28;20026;-78
2023/06/10 08:39:22;;;;;;;32.22;16.42;;;21.90;82.80;;;;;;4986312;28;20031;-78
2023/06/10 08:42:23;;;;;;;27.02;15.93;;;22.00;83.00;;;;;;4994474;28;20025;-79
2023/06/10 08:44:58;;;;;;;28.30;16.08;;;22.00;83.00;;;;;;4978483;28;20109;-82
2023/06/10 08:47:25;;;;;;;24.92;15.25;;;22.00;83.30;;;;;;4986770;28;20027;-81
2023/06/10 08:49:52;;;;;;;27.40;16.52;;;22.00;82.90;;;;;;4972770;28;20071;-81
2023/06/10 08:52:19;;;;;;;27.35;16.95;;;22.10;82.90;;;;;;4994298;28;20022;-81
2023/06/10 08:54:54;;;;;;;27.40;16.02;;;22.20;82.70;;;;;;4992700;28;20049;-82
2023/06/10 08:57:21;;;;;;;25.33;15.32;;;22.30;82.50;;;;;;4975888;28;20035;-82
2023/06/10 08:59:47;;;;;;;25.95;16.27;;;22.30;82.40;;;;;;4988641;28;20035;-85
2023/06/10 09:02:14;;;;;;;28.15;16.42;;;22.40;82.20;;;;;;4976072;28;20032;-82
2023/06/10 09:04:43;;;;;;;24.35;15.30;;;22.50;82.20;;;;;;4987433;28;20044;-84
2023/06/10 09:07:10;;;;;;;27.17;15.85;;;22.50;82.10;;;;;;5000976;28;20126;-81
2023/06/10 09:09:36;;;;;;;25.25;16.60;;;22.50;82.00;;;;;;4976946;28;20026;-81
2023/06/10 09:12:03;;;;;;;26.00;16.17;;;22.50;81.90;;;;;;4976479;28;20022;-85
2023/06/10 09:14:28;;;;;;;28.95;16.55;;;22.50;81.90;;;;;;4991266;28;20030;-85
2023/06/10 09:16:57;;;;;;;25.77;17.17;;;22.50;82.00;;;;;;4993795;28;20121;-86
2023/06/10 09:19:25;;;;;;;23.73;16.23;;;22.50;82.30;;;;;;4991112;28;20035;-86
2023/06/10 09:21:50;;;;;;;24.63;15.40;;;22.50;82.20;;;;;;4986696;28;20022;-86
2023/06/10 09:24:16;;;;;;;24.73;16.80;;;22.60;82.00;;;;;;4983451;28;20495;-81
2023/06/10 09:26:43;;;;;;;27.20;17.20;;;22.70;82.10;;;;;;4985811;28;20100;-88
2023/06/10 09:29:11;;;;;;;25.70;17.05;;;22.80;81.60;;;;;;4990501;28;20467;-84
2023/06/10 09:31:38;;;;;;;26.27;17.13;;;22.80;81.10;;;;;;4985666;28;20081;-87
2023/06/10 09:34:12;;;;;;;25.30;17.88;;;22.90;81.40;;;;;;4987000;28;20484;-83
2023/06/10 09:36:38;;;;;;;25.38;17.42;;;22.90;81.20;;;;;;4983899;28;20242;-89
2023/06/10 09:39:04;;;;;;;28.48;18.85;;;22.80;81.00;;;;;;4983731;28;20034;-89
2023/06/10 09:41:35;;;;;;;25.02;18.63;;;22.80;80.90;;;;;;4987417;28;20030;-88
2023/06/10 09:44:01;;;;;;;27.15;18.88;;;22.70;81.00;;;;;;4986698;28;20031;-88
2023/06/10 09:46:34;;;;;;;25.65;17.00;;;22.60;81.70;;;;;;4988729;28;20049;-90
2023/06/10 09:49:00;;;;;;;25.63;17.58;;;22.40;81.50;;;;;;4986005;28;20019;-75
2023/06/10 09:51:26;;;;;;;25.80;17.73;;;22.40;81.80;;;;;;4985161;28;20105;-75
2023/06/10 09:53:52;;;;;;;26.20;17.75;;;22.30;82.20;;;;;;4991659;28;20425;-87
2023/06/10 09:56:18;;;;;;;29.33;18.83;;;22.30;82.50;;;;;;4991080;28;20033;-80
2023/06/10 09:58:46;;;;;;;28.27;18.58;;;22.20;82.50;;;;;;4987761;28;20019;-77
2023/06/10 10:01:13;;;;;;;29.35;18.77;;;22.20;83.00;;;;;;4988195;28;20026;-77
2023/06/10 10:03:47;;;;;;;25.73;18.63;;;22.20;82.90;;;;;;4989166;28;20026;-84
2023/06/10 10:06:14;;;;;;;32.72;19.20;;;22.30;82.80;;;;;;4989163;28;20031;-86
2023/06/10 10:08:40;;;;;;;30.40;19.85;;;22.30;83.00;;;;;;4987585;28;20072;-79
2023/06/10 10:11:06;;;;;;;26.30;18.67;;;22.30;82.90;;;;;;4986715;28;20125;-78
2023/06/10 10:13:34;;;;;;;26.30;18.55;;;22.30;82.90;;;;;;4986001;28;20019;-77
2023/06/10 10:16:04;;;;;;;27.23;18.73;;;22.30;83.00;;;;;;4986114;28;20029;-80
2023/06/10 10:18:31;;;;;;;25.08;18.30;;;22.40;82.70;;;;;;4994448;28;20015;-76
2023/06/10 10:21:03;;;;;;;29.52;18.50;;;22.60;82.20;;;;;;4986051;28;20033;-79
2023/06/10 10:23:37;;;;;;;26.40;17.77;;;22.60;82.30;;;;;;4986983;28;20062;-73
2023/06/10 10:26:09;;;;;;;25.65;18.05;;;22.70;81.70;;;;;;4978688;28;20019;-87
2023/06/10 10:28:44;;;;;;;23.73;17.30;;;23.00;81.90;;;;;;4984031;28;20030;-79
2023/06/10 10:31:15;;;;;;;22.30;16.63;;;23.50;80.50;;;;;;4986651;28;20054;-81
2023/06/10 10:33:51;;;;;;;22.20;15.95;;;23.90;79.50;;;;;;4979757;28;20026;-79
2023/06/10 10:36:18;;;;;;;26.48;18.38;;;24.00;78.70;;;;;;4984976;28;20554;-79
2023/06/10 10:38:47;;;;;;;25.73;17.85;;;23.90;78.20;;;;;;4984546;28;20027;-78
2023/06/10 10:41:14;;;;;;;23.10;16.85;;;24.20;78.90;;;;;;4985777;28;20112;-80
2023/06/10 10:43:41;;;;;;;18.17;14.82;;;24.70;78.50;;;;;;4984300;28;20086;-79
2023/06/10 10:46:12;;;;;;;20.65;15.60;;;24.60;76.50;;;;;;4977995;28;20033;-78
2023/06/10 10:48:41;;;;;;;21.17;16.33;;;24.40;76.40;;;;;;4994860;28;20615;-79
2023/06/10 10:51:07;;;;;;;20.05;15.73;;;24.50;78.10;;;;;;4993533;28;20054;-84
2023/06/10 10:53:32;;;;;;;17.73;14.32;;;24.80;77.10;;;;;;4988416;28;20030;-76
2023/06/10 10:56:08;;;;;;;22.13;14.85;;;25.00;75.10;;;;;;4978878;28;20030;-80
2023/06/10 10:58:34;;;;;;;21.00;14.50;;;24.90;75.60;;;;;;4974811;28;20035;-78
2023/06/10 11:01:09;;;;;;;20.90;14.55;;;24.70;76.00;;;;;;4984405;28;20085;-79
2023/06/10 11:03:46;;;;;;;18.40;14.82;;;24.40;75.90;;;;;;4995333;28;20480;-77
2023/06/10 11:06:14;;;;;;;18.25;14.68;;;24.20;76.70;;;;;;4994109;28;20030;-78
2023/06/10 11:08:40;;;;;;;17.83;13.98;;;24.20;75.80;;;;;;4977997;28;20073;-78
2023/06/10 11:11:20;;;;;;;20.13;14.48;;;24.20;76.20;;;;;;4984306;28;20481;-80
2023/06/10 11:14:01;;;;;;;19.77;14.95;;;24.10;76.70;;;;;;4977533;28;20086;-78
2023/06/10 11:16:37;;;;;;;20.38;16.17;;;23.90;77.20;;;;;;4977341;28;20030;-79
2023/06/10 11:19:03;;;;;;;20.20;15.82;;;23.80;77.40;;;;;;4975531;28;20069;-78
2023/06/10 11:21:28;;;;;;;21.90;16.48;;;23.80;77.70;;;;;;4977128;28;20482;-83
2023/06/10 11:23:57;;;;;;;22.20;15.10;;;23.80;78.40;;;;;;4990770;28;20076;-80
2023/06/10 11:26:26;;;;;;;22.08;15.88;;;23.90;78.10;;;;;;4996072;28;20041;-81
2023/06/10 11:28:55;;;;;;;22.17;16.55;;;24.00;77.90;;;;;;4995793;28;20022;-77
2023/06/10 11:31:25;;;;;;;20.55;15.55;;;23.90;77.50;;;;;;4974615;28;20047;-73
2023/06/10 11:34:03;;;;;;;19.80;15.30;;;23.90;77.30;;;;;;4971410;28;20093;-80
2023/06/10 11:36:29;;;;;;;22.85;16.05;;;23.80;77.50;;;;;;4968424;28;20050;-80
2023/06/10 11:39:03;;;;;;;19.98;14.93;;;23.80;77.50;;;;;;4984095;28;20061;-80
2023/06/10 11:41:31;;;;;;;22.95;15.73;;;23.70;77.60;;;;;;4985109;28;20063;-80
2023/06/10 11:44:04;;;;;;;21.13;15.75;;;23.50;78.10;;;;;;4971477;28;20045;-80
2023/06/10 11:46:30;;;;;;;23.05;16.05;;;23.40;78.20;;;;;;4969844;28;20083;-80
2023/06/10 11:49:00;;;;;;;21.88;15.30;;;23.30;78.90;;;;;;4963845;28;20031;-80
2023/06/10 11:51:27;;;;;;;22.05;15.40;;;23.30;78.90;;;;;;4957404;28;20031;-81
2023/06/10 11:53:53;;;;;;;18.33;14.60;;;23.30;78.60;;;;;;4958835;28;20029;-81
2023/06/10 11:56:20;;;;;;;20.15;15.27;;;23.30;78.90;;;;;;4961822;28;20031;-81
2023/06/10 11:58:55;;;;;;;21.20;16.08;;;23.40;78.90;;;;;;4959479;28;20035;-80
2023/06/10 12:01:22;;;;;;;21.05;14.50;;;23.70;78.70;;;;;;4975243;28;20125;-73
2023/06/10 12:03:56;;;;;;;17.88;14.05;;;23.80;78.30;;;;;;4959504;28;20884;-74
2023/06/10 12:06:21;;;;;;;18.80;13.30;;;24.20;77.30;;;;;;4964091;28;20496;-78
2023/06/10 12:08:47;;;;;;;17.70;13.07;;;24.50;77.00;;;;;;4963780;28;20180;-77
2023/06/10 12:11:13;;;;;;;15.68;13.13;;;24.90;76.30;;;;;;4965607;28;20027;-80
2023/06/10 12:13:49;;;;;;;19.95;13.52;;;25.10;75.00;;;;;;4965886;28;20023;-74
2023/06/10 12:16:16;;;;;;;15.23;12.35;;;25.40;73.60;;;;;;4968908;28;20035;-79
2023/06/10 12:18:45;;;;;;;16.77;12.52;;;25.30;73.40;;;;;;4973190;28;20074;-75
2023/06/10 12:21:23;;;;;;;15.52;11.98;;;25.20;73.10;;;;;;4973626;28;20037;-75
2023/06/10 12:24:07;;;;;;;16.75;12.73;;;25.10;73.50;;;;;;4978932;28;20043;-75
2023/06/10 12:26:41;;;;;;;17.20;12.60;;;25.20;73.70;;;;;;4972847;28;20027;-75
2023/06/10 12:29:29;;;;;;;17.17;12.85;;;25.20;73.90;;;;;;4966650;28;20031;-75
2023/06/10 12:32:00;;;;;;;15.07;11.45;;;25.30;73.40;;;;;;4984396;28;20042;-75
2023/06/10 12:34:32;;;;;;;16.77;12.25;;;25.30;72.20;;;;;;4987783;28;20022;-70
2023/06/10 12:36:59;;;;;;;15.85;12.15;;;25.50;73.60;;;;;;4989163;28;20549;-76
2023/06/10 12:39:24;;;;;;;14.52;11.55;;;25.70;72.40;;;;;;4988424;28;20031;-75
2023/06/10 12:41:51;;;;;;;16.42;12.93;;;25.70;72.00;;;;;;4988061;28;20029;-75
2023/06/10 12:44:17;;;;;;;14.85;11.57;;;25.80;72.10;;;;;;4988994;28;20089;-75
2023/06/10 12:46:43;;;;;;;15.63;12.15;;;26.00;71.50;;;;;;4989360;28;20026;-75
2023/06/10 12:49:18;;;;;;;16.58;12.52;;;25.80;71.50;;;;;;4987821;28;20030;-75
2023/06/10 12:51:44;;;;;;;13.55;11.75;;;25.70;71.50;;;;;;4986753;28;20027;-75
2023/06/10 12:54:10;;;;;;;12.85;10.95;;;25.50;72.00;;;;;;4988354;28;20034;-75
2023/06/10 12:56:36;;;;;;;13.98;10.77;;;25.70;71.20;;;;;;4987460;28;20337;-78
2023/06/10 12:59:02;;;;;;;14.00;10.65;;;26.00;70.80;;;;;;4978541;28;20026;-78
2023/06/10 13:01:31;;;;;;;13.05;10.88;;;26.20;70.50;;;;;;4988353;28;20043;-76
2023/06/10 13:03:57;;;;;;;15.93;11.57;;;26.10;69.80;;;;;;4988948;28;20056;-76
2023/06/10 13:06:23;;;;;;;13.52;10.50;;;25.90;69.70;;;;;;4992064;28;20382;-76
2023/06/10 13:08:48;;;;;;;13.85;10.90;;;25.80;70.80;;;;;;4976973;28;20022;-76
2023/06/10 13:11:14;;;;;;;12.32;9.90;;;25.80;71.20;;;;;;4986378;28;20523;-76
2023/06/10 13:13:39;;;;;;;14.60;11.00;;;25.80;70.60;;;;;;4987648;28;20098;-76
2023/06/10 13:16:07;;;;;;;14.23;11.18;;;26.20;69.60;;;;;;4985880;28;20062;-79
2023/06/10 13:18:37;;;;;;;12.27;9.88;;;26.30;68.70;;;;;;4984029;28;20030;-81
2023/06/10 13:21:06;;;;;;;13.55;9.90;;;26.40;69.40;;;;;;4986875;28;20062;-79
2023/06/10 13:23:32;;;;;;;11.48;9.07;;;26.60;68.20;;;;;;4984348;28;20027;-82
2023/06/10 13:25:58;;;;;;;11.80;9.32;;;26.80;69.20;;;;;;4986705;28;20558;-80
2023/06/10 13:28:23;;;;;;;11.40;9.43;;;26.80;68.60;;;;;;4986600;28;20018;-79
2023/06/10 13:30:50;;;;;;;13.77;9.48;;;26.80;67.60;;;;;;4984273;28;20125;-79
2023/06/10 13:33:15;;;;;;;13.35;10.15;;;26.50;68.00;;;;;;4986785;28;20023;-79
2023/06/10 13:35:41;;;;;;;11.63;9.43;;;26.60;67.70;;;;;;4988640;28;20033;-79
2023/06/10 13:38:07;;;;;;;13.60;9.90;;;26.50;67.30;;;;;;4987567;28;20037;-82
2023/06/10 13:40:32;;;;;;;12.43;8.80;;;26.20;67.30;;;;;;4985851;28;20132;-82
2023/06/10 13:42:58;;;;;;;11.85;9.10;;;26.00;67.80;;;;;;4988813;28;20504;-81
2023/06/10 13:45:24;;;;;;;11.48;8.63;;;25.70;67.70;;;;;;4988558;28;20244;-83
2023/06/10 13:47:50;;;;;;;11.65;9.07;;;25.70;68.50;;;;;;4982075;28;20041;-80
2023/06/10 13:50:16;;;;;;;11.50;8.93;;;25.70;67.80;;;;;;4986497;28;20401;-79
2023/06/10 13:52:42;;;;;;;11.57;8.85;;;25.70;68.80;;;;;;4985637;28;20408;-80
2023/06/10 13:55:08;;;;;;;12.10;8.85;;;25.60;68.60;;;;;;4984721;28;20022;-80
2023/06/10 13:57:34;;;;;;;13.02;8.55;;;25.50;69.30;;;;;;4985347;28;20031;-80
2023/06/10 13:59:59;;;;;;;9.52;8.18;;;25.40;69.90;;;;;;4985874;28;20031;-80
2023/06/10 14:02:25;;;;;;;10.50;8.15;;;25.30;70.00;;;;;;4984990;28;20026;-80
2023/06/10 14:04:51;;;;;;;9.68;7.18;;;25.30;69.60;;;;;;4985201;28;20035;-80
2023/06/10 14:07:17;;;;;;;8.88;6.93;;;25.40;69.80;;;;;;4989361;28;20019;-80
2023/06/10 14:09:43;;;;;;;8.95;7.97;;;25.50;69.40;;;;;;4983811;28;20090;-82
2023/06/10 14:12:09;;;;;;;11.65;9.23;;;25.50;69.50;;;;;;4986089;28;20027;-79
2023/06/10 14:14:36;;;;;;;10.25;7.82;;;25.40;69.20;;;;;;4996216;28;20054;-80
2023/06/10 14:17:04;;;;;;;9.10;7.40;;;25.50;69.30;;;;;;4995404;28;20444;-80
2023/06/10 14:19:29;;;;;;;9.80;7.55;;;25.50;69.00;;;;;;4996124;28;20057;-82
2023/06/10 14:21:55;;;;;;;9.98;7.93;;;25.60;68.50;;;;;;4978248;28;20026;-79
2023/06/10 14:24:21;;;;;;;12.20;8.00;;;25.60;68.80;;;;;;4988363;28;20058;-80
2023/06/10 14:26:47;;;;;;;9.15;7.63;;;25.60;68.90;;;;;;4985434;28;20027;-80
2023/06/10 14:29:14;;;;;;;10.10;8.15;;;25.80;69.10;;;;;;4982373;28;20554;-80
2023/06/10 14:31:40;;;;;;;10.65;7.75;;;25.90;68.80;;;;;;4988924;28;20046;-80
2023/06/10 14:34:07;;;;;;;9.88;7.95;;;26.00;68.50;;;;;;4988072;28;20037;-80
2023/06/10 14:36:33;;;;;;;10.15;7.80;;;26.00;68.60;;;;;;4987620;28;20033;-82
2023/06/10 14:38:59;;;;;;;11.13;7.60;;;26.00;69.00;;;;;;4986394;28;20105;-80
2023/06/10 14:41:25;;;;;;;8.98;7.53;;;25.80;67.30;;;;;;4985152;28;20061;-80
2023/06/10 14:43:53;;;;;;;8.93;7.03;;;25.80;68.00;;;;;;4989474;28;20033;-81
2023/06/10 14:46:22;;;;;;;10.20;7.72;;;25.90;68.30;;;;;;4984063;28;20022;-80
2023/06/10 14:48:47;;;;;;;8.57;6.97;;;25.90;67.90;;;;;;4984045;28;20031;-80
2023/06/10 14:51:14;;;;;;;10.07;7.03;;;26.00;68.10;;;;;;4983974;28;20448;-80
2023/06/10 14:53:39;;;;;;;9.05;7.18;;;26.00;67.60;;;;;;4993337;28;20035;-80
2023/06/10 14:56:05;;;;;;;8.80;6.88;;;26.00;67.40;;;;;;4987569;28;20031;-79
2023/06/10 14:58:30;;;;;;;8.88;7.07;;;26.00;67.20;;;;;;4988448;28;20040;-79
2023/06/10 15:00:56;;;;;;;8.65;6.88;;;26.10;67.20;;;;;;4982597;28;20109;-79
2023/06/10 15:03:22;;;;;;;9.95;7.50;;;26.10;66.60;;;;;;4990262;28;20069;-77
2023/06/10 15:05:47;;;;;;;7.75;6.65;;;26.30;66.70;;;;;;4987835;28;20080;-78
2023/06/10 15:08:13;;;;;;;9.07;7.03;;;26.30;66.20;;;;;;4971512;28;20583;-79
2023/06/10 15:10:39;;;;;;;7.57;6.28;;;26.40;65.90;;;;;;4980236;28;20034;-78
2023/06/10 15:13:05;;;;;;;10.23;6.88;;;26.60;65.70;;;;;;4972380;28;20041;-79
2023/06/10 15:15:31;;;;;;;10.68;6.90;;;26.70;65.10;;;;;;4966952;28;20035;-78
2023/06/10 15:17:56;;;;;;;11.93;6.93;;;26.90;65.30;;;;;;4973105;28;20042;-77
2023/06/10 15:20:22;;;;;;;8.50;6.68;;;27.00;65.40;;;;;;4975390;28;20030;-83
2023/06/10 15:22:48;;;;;;;10.25;7.05;;;26.90;64.90;;;;;;4995445;28;20026;-80
2023/06/10 15:25:13;;;;;;;9.93;7.22;;;27.00;65.00;;;;;;4995430;28;20066;-78
2023/06/10 15:27:39;;;;;;;9.07;6.80;;;27.00;65.00;;;;;;4978694;28;20120;-78
2023/06/10 15:30:05;;;;;;;8.10;6.95;;;27.00;64.30;;;;;;4976576;28;20037;-78
2023/06/10 15:32:31;;;;;;;10.65;7.22;;;26.90;63.70;;;;;;4976395;28;20102;-78
2023/06/10 15:34:57;;;;;;;10.00;7.00;;;26.90;64.00;;;;;;4976171;28;20493;-78
2023/06/10 15:37:22;;;;;;;7.80;6.35;;;27.00;64.20;;;;;;4975897;28;20031;-78
2023/06/10 15:39:48;;;;;;;9.15;6.72;;;27.10;63.70;;;;;;4959392;28;20065;-78
2023/06/10 15:42:13;;;;;;;8.23;6.75;;;27.10;63.60;;;;;;4979273;28;20041;-78
2023/06/10 15:44:39;;;;;;;10.15;6.90;;;27.20;63.00;;;;;;4985550;28;20030;-78
2023/06/10 15:47:05;;;;;;;10.25;7.10;;;27.00;63.70;;;;;;4962744;28;20026;-78
2023/06/10 15:49:30;;;;;;;8.50;6.68;;;27.00;63.40;;;;;;4980116;28;20106;-78
2023/06/10 15:51:56;;;;;;;8.90;7.07;;;27.00;63.20;;;;;;4989803;28;20089;-78
2023/06/10 15:54:22;;;;;;;8.65;6.68;;;27.10;63.40;;;;;;4989618;28;20117;-78
2023/06/10 15:56:47;;;;;;;9.07;6.95;;;27.30;63.60;;;;;;4978666;28;20106;-78
2023/06/10 15:59:13;;;;;;;8.88;6.60;;;27.30;62.30;;;;;;4993886;28;20548;-78
2023/06/10 16:01:39;;;;;;;7.95;5.88;;;27.30;62.60;;;;;;4998115;28;20086;-78
2023/06/10 16:04:04;;;;;;;7.68;6.32;;;27.40;63.20;;;;;;4999092;28;20101;-78
2023/06/10 16:06:30;;;;;;;7.97;6.35;;;27.50;62.30;;;;;;4977558;28;20042;-78
2023/06/10 16:08:56;;;;;;;7.93;6.38;;;27.40;62.50;;;;;;4979862;28;20042;-78
2023/06/10 16:11:22;;;;;;;9.63;6.70;;;27.30;62.80;;;;;;4979623;28;20077;-78
2023/06/10 16:13:48;;;;;;;8.93;7.35;;;27.20;62.40;;;;;;4978483;28;20540;-79
2023/06/10 16:16:14;;;;;;;12.63;6.78;;;26.90;62.80;;;;;;4979530;28;20031;-79
2023/06/10 16:18:40;;;;;;;8.27;6.82;;;26.80;63.90;;;;;;4971741;28;20170;-79
2023/06/10 16:21:05;;;;;;;9.38;7.22;;;26.70;64.50;;;;;;4980954;28;20070;-78
2023/06/10 16:23:31;;;;;;;8.00;6.65;;;26.60;64.40;;;;;;4999017;28;20397;-79
2023/06/10 16:25:57;;;;;;;13.25;7.40;;;26.60;65.00;;;;;;4998574;28;20156;-78
2023/06/10 16:28:22;;;;;;;9.30;6.78;;;26.70;64.70;;;;;;4990241;28;20023;-79
2023/06/10 16:30:48;;;;;;;9.68;6.53;;;26.70;64.70;;;;;;4997865;28;20777;-78
2023/06/10 16:33:14;;;;;;;10.43;6.82;;;26.60;64.40;;;;;;4997356;28;20034;-78
2023/06/10 16:35:39;;;;;;;8.98;6.78;;;26.40;64.90;;;;;;4998637;28;20030;-78
2023/06/10 16:38:05;;;;;;;11.40;6.55;;;26.30;65.20;;;;;;4982112;28;20041;-78
2023/06/10 16:40:31;;;;;;;9.35;6.47;;;26.30;65.40;;;;;;4961862;28;20042;-78
2023/06/10 16:42:56;;;;;;;8.30;6.15;;;26.40;65.00;;;;;;4989860;28;20026;-79
2023/06/10 16:45:22;;;;;;;8.23;6.40;;;26.50;64.80;;;;;;5018346;28;20069;-79
2023/06/10 16:47:48;;;;;;;9.57;6.10;;;26.40;64.40;;;;;;5016376;28;20659;-78
2023/06/10 16:50:13;;;;;;;7.63;6.10;;;26.30;64.80;;;;;;5014197;28;20029;-79
2023/06/10 16:52:39;;;;;;;8.98;6.57;;;26.40;64.90;;;;;;4978114;28;20034;-78
2023/06/10 16:55:05;;;;;;;9.52;5.80;;;26.40;64.40;;;;;;4979392;28;20504;-79
2023/06/10 16:57:30;;;;;;;7.97;6.10;;;26.50;64.20;;;;;;4961134;28;20066;-79
2023/06/10 16:59:56;;;;;;;8.05;6.00;;;26.30;64.30;;;;;;4961410;28;20030;-79